Time;durP1;ratioP1;P1;durP2;ratioP2;P2;SDS_P1;SDS_P2;PMS_P1;PMS_P2;Temp;Humidity;BMP_temperature;BMP_pressure;BME280_temperature;BME280_humidity;BME280_pressure;Samples;Min_cycle;Max_cycle;Signal;HPM_P1;HPM_P2
2023/09/09 00:01:02;;;;;;;9.50;6.13;;;;;;;;;;5102717;28;20112;-68
2023/09/09 00:03:28;;;;;;;11.10;6.15;;;;;;;;;;5096909;28;20028;-68
2023/09/09 00:05:55;;;;;;;10.10;5.93;;;;;;;;;;5098126;28;20035;-68
2023/09/09 00:08:21;;;;;;;16.08;6.43;;;;;;;;;;5102220;28;20039;-69
2023/09/09 00:10:48;;;;;;;8.82;6.20;;;;;;;;;;5096711;28;20511;-69
2023/09/09 00:13:15;;;;;;;9.05;6.32;;;;;;;;;;5086447;28;20035;-68
2023/09/09 00:15:42;;;;;;;9.10;6.40;;;;;;;;;;5074710;28;20171;-68
2023/09/09 00:18:08;;;;;;;9.43;6.18;;;;;;;;;;5101488;28;20031;-68
2023/09/09 00:20:35;;;;;;;9.00;6.43;;;;;;;;;;5107054;28;20036;-68
2023/09/09 00:23:07;;;;;;;8.98;6.43;;;;;;;;;;5102142;28;20483;-68
2023/09/09 00:25:33;;;;;;;11.50;6.75;;;;;;;;;;5106933;28;20035;-68
2023/09/09 00:27:59;;;;;;;13.13;5.90;;;;;;;;;;5101775;28;20111;-68
2023/09/09 00:30:26;;;;;;;7.70;6.47;;;;;;;;;;5106304;28;20364;-68
2023/09/09 00:32:52;;;;;;;9.10;6.65;;;;;;;;;;5104334;28;20407;-68
2023/09/09 00:35:18;;;;;;;8.98;6.50;;;;;;;;;;5105015;28;20071;-68
2023/09/09 00:37:45;;;;;;;8.68;6.22;;;;;;;;;;5103146;28;20428;-68
2023/09/09 00:40:11;;;;;;;10.85;6.45;;;;;;;;;;5104264;28;20035;-68
2023/09/09 00:42:38;;;;;;;7.78;5.78;;;;;;;;;;5102114;28;20015;-68
2023/09/09 00:45:04;;;;;;;12.23;7.47;;;;;;;;;;5107060;28;20055;-68
2023/09/09 00:47:30;;;;;;;11.13;6.07;;;;;;;;;;5096674;28;20028;-68
2023/09/09 00:49:56;;;;;;;10.93;6.45;;;;;;;;;;5102051;28;20548;-69
2023/09/09 00:52:23;;;;;;;7.05;5.35;;;;;;;;;;5106315;28;20046;-68
2023/09/09 00:54:49;;;;;;;9.88;6.55;;;;;;;;;;5101360;28;20035;-68
2023/09/09 00:57:17;;;;;;;12.95;6.22;;;;;;;;;;5101426;28;20028;-68
2023/09/09 00:59:43;;;;;;;10.65;5.78;;;;;;;;;;5107309;28;20372;-68
2023/09/09 01:02:09;;;;;;;12.52;6.00;;;;;;;;;;5104100;28;20030;-68
2023/09/09 01:04:36;;;;;;;7.70;5.90;;;;;;;;;;5103979;28;20035;-68
2023/09/09 01:07:03;;;;;;;12.68;5.82;;;;;;;;;;5084353;28;20113;-68
2023/09/09 01:09:30;;;;;;;11.45;5.72;;;;;;;;;;5101003;28;20466;-69
2023/09/09 01:11:56;;;;;;;9.55;5.85;;;;;;;;;;5097786;28;20031;-68
2023/09/09 01:14:22;;;;;;;9.45;5.20;;;;;;;;;;5099314;28;20462;-67
2023/09/09 01:16:51;;;;;;;7.93;5.40;;;;;;;;;;5091408;28;20044;-67
2023/09/09 01:19:20;;;;;;;7.18;5.05;;;;;;;;;;5093362;28;20028;-67
2023/09/09 01:21:47;;;;;;;8.05;5.53;;;;;;;;;;5095838;28;20028;-67
2023/09/09 01:24:15;;;;;;;9.10;6.50;;;;;;;;;;5098370;28;20028;-68
2023/09/09 01:26:41;;;;;;;9.70;5.32;;;;;;;;;;5100768;28;20379;-68
2023/09/09 01:29:07;;;;;;;8.27;5.53;;;;;;;;;;5094516;28;20032;-68
2023/09/09 01:31:33;;;;;;;10.23;5.88;;;;;;;;;;5083209;28;20088;-69
2023/09/09 01:33:59;;;;;;;8.65;5.90;;;;;;;;;;5102152;28;20074;-68
2023/09/09 01:36:25;;;;;;;11.05;6.15;;;;;;;;;;5102032;28;20034;-69
2023/09/09 01:38:52;;;;;;;6.28;4.68;;;;;;;;;;5098236;28;20122;-69
2023/09/09 01:41:18;;;;;;;10.30;5.25;;;;;;;;;;5102047;28;20487;-68
2023/09/09 01:43:44;;;;;;;9.73;5.60;;;;;;;;;;5102386;28;20027;-68
2023/09/09 01:46:10;;;;;;;9.57;5.47;;;;;;;;;;5093222;27;20034;-68
2023/09/09 01:48:39;;;;;;;8.10;5.93;;;;;;;;;;5100145;28;20049;-68
2023/09/09 01:51:06;;;;;;;12.52;4.68;;;;;;;;;;5099942;28;20402;-68
2023/09/09 01:53:32;;;;;;;9.45;5.63;;;;;;;;;;5095423;28;20028;-68
2023/09/09 01:55:58;;;;;;;8.50;5.18;;;;;;;;;;5095359;28;20027;-68
2023/09/09 01:58:25;;;;;;;11.55;5.63;;;;;;;;;;5104207;28;20080;-68
2023/09/09 02:00:51;;;;;;;9.82;5.15;;;;;;;;;;5103398;28;20047;-67
2023/09/09 02:03:17;;;;;;;9.73;5.55;;;;;;;;;;5089753;28;20016;-67
2023/09/09 02:05:43;;;;;;;11.90;5.47;;;;;;;;;;5104915;28;20028;-68
2023/09/09 02:08:09;;;;;;;10.15;5.28;;;;;;;;;;5100269;28;20027;-69
2023/09/09 02:10:36;;;;;;;7.15;5.03;;;;;;;;;;5099645;28;20023;-69
2023/09/09 02:13:02;;;;;;;9.70;5.68;;;;;;;;;;5097006;28;20072;-68
2023/09/09 02:15:28;;;;;;;9.63;5.32;;;;;;;;;;5100682;28;20419;-69
2023/09/09 02:17:54;;;;;;;8.20;5.10;;;;;;;;;;5099361;28;20024;-69
2023/09/09 02:20:20;;;;;;;9.65;5.57;;;;;;;;;;5076401;28;20038;-68
2023/09/09 02:22:46;;;;;;;9.80;5.72;;;;;;;;;;5096721;28;20603;-68
2023/09/09 02:25:12;;;;;;;11.57;5.93;;;;;;;;;;5103185;28;20058;-68
2023/09/09 02:27:39;;;;;;;9.27;5.88;;;;;;;;;;5098983;28;20127;-68
2023/09/09 02:30:05;;;;;;;10.40;5.28;;;;;;;;;;5080052;28;20039;-68
2023/09/09 02:32:31;;;;;;;8.77;5.45;;;;;;;;;;5106628;28;20053;-68
2023/09/09 02:34:59;;;;;;;11.65;5.90;;;;;;;;;;5096633;28;20035;-68
2023/09/09 02:37:26;;;;;;;8.05;5.25;;;;;;;;;;5102588;28;20055;-68
2023/09/09 02:39:53;;;;;;;12.48;5.05;;;;;;;;;;5101720;28;20130;-68
2023/09/09 02:42:20;;;;;;;8.50;6.57;;;;;;;;;;5104859;28;20399;-68
2023/09/09 02:44:47;;;;;;;9.70;5.38;;;;;;;;;;5106057;28;20035;-68
2023/09/09 02:47:13;;;;;;;10.70;6.03;;;;;;;;;;5106824;27;20395;-69
2023/09/09 02:49:39;;;;;;;10.18;5.85;;;;;;;;;;5102698;27;20036;-68
2023/09/09 02:52:09;;;;;;;13.35;5.55;;;;;;;;;;5101704;27;20027;-67
2023/09/09 02:54:36;;;;;;;9.15;5.63;;;;;;;;;;5094781;28;20047;-67
2023/09/09 02:57:05;;;;;;;7.55;5.65;;;;;;;;;;5107373;28;20042;-67
2023/09/09 02:59:35;;;;;;;10.40;5.30;;;;;;;;;;5091261;28;20472;-67
2023/09/09 03:02:02;;;;;;;8.55;5.97;;;;;;;;;;5105736;28;20020;-68
2023/09/09 03:04:28;;;;;;;7.45;5.78;;;;;;;;;;5086285;27;20028;-67
2023/09/09 03:06:54;;;;;;;7.75;5.63;;;;;;;;;;5087720;28;20147;-67
2023/09/09 03:09:21;;;;;;;13.07;6.10;;;;;;;;;;5104971;28;20032;-67
2023/09/09 03:11:47;;;;;;;8.45;5.82;;;;;;;;;;5109669;28;20035;-67
2023/09/09 03:14:13;;;;;;;10.20;5.80;;;;;;;;;;5104746;28;20465;-67
2023/09/09 03:16:39;;;;;;;10.68;5.75;;;;;;;;;;5081454;28;20488;-67
2023/09/09 03:19:05;;;;;;;11.82;6.88;;;;;;;;;;5082655;28;20024;-67
2023/09/09 03:21:31;;;;;;;13.18;6.18;;;;;;;;;;5086723;28;20023;-68
2023/09/09 03:23:58;;;;;;;15.07;6.65;;;;;;;;;;5085104;28;20499;-67
2023/09/09 03:26:24;;;;;;;8.63;5.38;;;;;;;;;;5086798;28;20039;-67
2023/09/09 03:28:51;;;;;;;9.13;5.97;;;;;;;;;;5098138;28;20395;-67
2023/09/09 03:31:17;;;;;;;11.45;6.05;;;;;;;;;;5079117;28;20520;-68
2023/09/09 03:33:43;;;;;;;8.63;5.50;;;;;;;;;;5082658;28;20075;-67
2023/09/09 03:36:10;;;;;;;9.38;5.80;;;;;;;;;;5085154;28;20024;-67
2023/09/09 03:38:36;;;;;;;8.48;5.63;;;;;;;;;;5081992;28;20933;-67
2023/09/09 03:41:06;;;;;;;13.88;6.65;;;;;;;;;;5079297;28;20066;-67
2023/09/09 03:43:32;;;;;;;8.90;6.55;;;;;;;;;;5085001;28;20105;-67
2023/09/09 03:45:59;;;;;;;9.25;6.65;;;;;;;;;;5078921;28;20827;-68
2023/09/09 03:48:25;;;;;;;11.57;6.55;;;;;;;;;;5081900;28;20109;-67
2023/09/09 03:50:51;;;;;;;11.82;6.55;;;;;;;;;;5083345;28;20032;-68
2023/09/09 03:53:17;;;;;;;11.43;6.15;;;;;;;;;;5088453;28;20483;-69
2023/09/09 03:55:43;;;;;;;10.00;5.93;;;;;;;;;;5083630;28;20032;-67
2023/09/09 03:58:09;;;;;;;12.52;7.15;;;;;;;;;;5084375;28;20024;-67
2023/09/09 04:00:37;;;;;;;9.93;6.35;;;;;;;;;;5081966;28;20038;-67
2023/09/09 04:03:03;;;;;;;15.70;6.38;;;;;;;;;;5082967;28;20036;-67
2023/09/09 04:05:30;;;;;;;9.25;5.93;;;;;;;;;;5086956;28;20115;-67
2023/09/09 04:07:58;;;;;;;12.02;6.63;;;;;;;;;;5097708;28;20107;-67
2023/09/09 04:10:24;;;;;;;12.10;5.65;;;;;;;;;;5071549;28;20541;-67
2023/09/09 04:12:50;;;;;;;13.63;6.18;;;;;;;;;;5083564;28;20245;-67
2023/09/09 04:15:16;;;;;;;9.82;6.07;;;;;;;;;;5085681;28;20579;-67
2023/09/09 04:17:43;;;;;;;9.77;6.75;;;;;;;;;;5098163;28;20743;-68
2023/09/09 04:20:10;;;;;;;8.23;6.35;;;;;;;;;;5101269;28;20020;-67
2023/09/09 04:22:36;;;;;;;10.25;6.30;;;;;;;;;;5104755;28;20034;-68
2023/09/09 04:25:02;;;;;;;10.13;6.57;;;;;;;;;;5081352;28;20440;-67
2023/09/09 04:27:28;;;;;;;9.20;5.47;;;;;;;;;;5104258;28;20027;-67
2023/09/09 04:29:55;;;;;;;11.40;5.78;;;;;;;;;;5097245;28;20027;-67
2023/09/09 04:32:21;;;;;;;10.52;5.95;;;;;;;;;;5101891;28;20483;-67
2023/09/09 04:34:48;;;;;;;11.02;6.45;;;;;;;;;;5103486;28;20038;-67
2023/09/09 04:37:16;;;;;;;9.77;6.45;;;;;;;;;;5099236;28;20024;-67
2023/09/09 04:39:42;;;;;;;16.75;6.80;;;;;;;;;;5102254;28;20037;-67
2023/09/09 04:42:08;;;;;;;8.70;6.28;;;;;;;;;;5098427;28;20023;-67
2023/09/09 04:44:35;;;;;;;12.68;6.18;;;;;;;;;;5097534;28;20542;-67
2023/09/09 04:47:02;;;;;;;11.20;6.32;;;;;;;;;;5104970;28;20023;-67
2023/09/09 04:49:28;;;;;;;9.32;5.90;;;;;;;;;;5098566;28;20043;-67
2023/09/09 04:51:54;;;;;;;10.60;5.88;;;;;;;;;;5104468;28;20099;-67
2023/09/09 04:54:20;;;;;;;8.88;5.85;;;;;;;;;;5103592;28;20061;-67
2023/09/09 04:56:47;;;;;;;8.10;6.38;;;;;;;;;;5101870;28;20406;-67
2023/09/09 04:59:13;;;;;;;9.57;5.85;;;;;;;;;;5092861;28;20016;-67
2023/09/09 05:01:39;;;;;;;12.75;5.90;;;;;;;;;;5101655;28;20103;-67
2023/09/09 05:04:05;;;;;;;11.05;7.85;;;;;;;;;;5106321;28;20027;-67
2023/09/09 05:06:32;;;;;;;10.57;5.82;;;;;;;;;;5103565;28;20015;-67
2023/09/09 05:08:58;;;;;;;9.57;6.10;;;;;;;;;;5105892;28;20039;-67
2023/09/09 05:11:24;;;;;;;8.48;6.68;;;;;;;;;;5104008;28;20427;-67
2023/09/09 05:13:50;;;;;;;9.48;5.45;;;;;;;;;;5106391;28;20031;-67
2023/09/09 05:16:16;;;;;;;10.43;5.63;;;;;;;;;;5101404;28;20055;-67
2023/09/09 05:18:42;;;;;;;11.35;6.88;;;;;;;;;;5096589;28;20055;-67
2023/09/09 05:21:08;;;;;;;9.45;5.78;;;;;;;;;;5079716;28;20546;-67
2023/09/09 05:23:37;;;;;;;8.65;6.57;;;;;;;;;;5098174;28;20015;-67
2023/09/09 05:26:03;;;;;;;10.82;5.93;;;;;;;;;;5100851;28;20047;-67
2023/09/09 05:28:30;;;;;;;8.00;5.97;;;;;;;;;;5080648;28;20075;-67
2023/09/09 05:30:56;;;;;;;9.93;5.65;;;;;;;;;;5102057;28;20275;-67
2023/09/09 05:33:22;;;;;;;10.05;6.03;;;;;;;;;;5094921;28;20667;-67
2023/09/09 05:35:51;;;;;;;11.32;6.63;;;;;;;;;;5083939;28;20055;-67
2023/09/09 05:38:17;;;;;;;10.60;6.55;;;;;;;;;;5103761;28;20084;-67
2023/09/09 05:40:43;;;;;;;11.40;6.03;;;;;;;;;;5081647;27;20097;-67
2023/09/09 05:43:09;;;;;;;13.48;6.38;;;;;;;;;;5101876;28;20027;-67
2023/09/09 05:45:35;;;;;;;11.32;5.65;;;;;;;;;;5098076;28;20731;-67
2023/09/09 05:48:02;;;;;;;10.35;5.53;;;;;;;;;;5095185;28;20024;-67
2023/09/09 05:50:29;;;;;;;10.00;5.97;;;;;;;;;;5097826;28;20026;-67
2023/09/09 05:52:55;;;;;;;8.82;5.45;;;;;;;;;;5103408;28;20024;-67
2023/09/09 05:55:21;;;;;;;8.55;5.47;;;;;;;;;;5093484;28;20034;-67
2023/09/09 05:57:47;;;;;;;8.10;6.07;;;;;;;;;;5103682;28;20031;-68
2023/09/09 06:00:13;;;;;;;9.35;4.93;;;;;;;;;;5101187;28;20084;-67
2023/09/09 06:02:39;;;;;;;9.48;6.15;;;;;;;;;;5102966;28;20382;-67
2023/09/09 06:05:06;;;;;;;9.80;6.60;;;;;;;;;;5100039;28;20403;-67
2023/09/09 06:07:32;;;;;;;14.00;6.30;;;;;;;;;;5096267;28;20379;-67
2023/09/09 06:09:58;;;;;;;10.55;6.03;;;;;;;;;;5101870;28;20028;-67
2023/09/09 06:12:25;;;;;;;10.45;5.95;;;;;;;;;;5084426;28;20027;-67
2023/09/09 06:14:51;;;;;;;10.63;6.65;;;;;;;;;;5092366;28;20209;-67
2023/09/09 06:17:17;;;;;;;8.40;6.10;;;;;;;;;;5100888;28;20027;-67
2023/09/09 06:19:43;;;;;;;8.95;5.97;;;;;;;;;;5101469;28;20104;-67
2023/09/09 06:22:10;;;;;;;9.60;5.47;;;;;;;;;;5103453;28;20050;-67
2023/09/09 06:24:36;;;;;;;8.32;5.32;;;;;;;;;;5102066;28;20071;-67
2023/09/09 06:27:02;;;;;;;10.35;6.25;;;;;;;;;;5103190;28;20066;-67
2023/09/09 06:29:29;;;;;;;10.27;5.93;;;;;;;;;;5093401;28;20165;-67
2023/09/09 06:31:55;;;;;;;9.57;5.70;;;;;;;;;;5099472;28;20028;-67
2023/09/09 06:34:21;;;;;;;10.25;5.57;;;;;;;;;;5102784;28;20028;-67
2023/09/09 06:36:47;;;;;;;9.85;6.38;;;;;;;;;;5100666;28;20118;-67
2023/09/09 06:39:13;;;;;;;9.65;5.85;;;;;;;;;;5099512;28;20023;-68
2023/09/09 06:41:40;;;;;;;10.18;6.00;;;;;;;;;;5100423;28;20020;-67
2023/09/09 06:44:06;;;;;;;8.98;6.75;;;;;;;;;;5079440;28;20031;-67
2023/09/09 06:46:32;;;;;;;11.88;6.25;;;;;;;;;;5097196;28;20119;-67
2023/09/09 06:48:58;;;;;;;9.40;6.43;;;;;;;;;;5103869;28;20020;-67
2023/09/09 06:51:24;;;;;;;9.73;6.75;;;;;;;;;;5099857;28;20027;-67
2023/09/09 06:53:51;;;;;;;9.27;6.18;;;;;;;;;;5101461;28;20519;-68
2023/09/09 06:56:17;;;;;;;12.02;6.65;;;;;;;;;;5077696;28;20470;-67
2023/09/09 06:58:43;;;;;;;8.32;6.60;;;;;;;;;;5100555;28;20031;-67
2023/09/09 07:01:11;;;;;;;8.98;6.35;;;;;;;;;;5097763;28;20637;-67
2023/09/09 07:03:37;;;;;;;10.20;6.13;;;;;;;;;;5099363;28;20365;-68
2023/09/09 07:06:03;;;;;;;10.90;5.90;;;;;;;;;;5095539;28;20118;-67
2023/09/09 07:08:29;;;;;;;9.52;6.05;;;;;;;;;;5101270;28;20125;-68
2023/09/09 07:10:56;;;;;;;11.00;7.47;;;;;;;;;;5103631;28;20391;-68
2023/09/09 07:13:22;;;;;;;10.43;6.10;;;;;;;;;;5083237;28;20034;-68
2023/09/09 07:15:54;;;;;;;11.48;6.10;;;;;;;;;;5100271;28;20044;-69
2023/09/09 07:18:21;;;;;;;9.05;5.90;;;;;;;;;;5104021;28;20076;-68
2023/09/09 07:20:48;;;;;;;11.15;6.47;;;;;;;;;;5102700;28;20434;-68
2023/09/09 07:23:17;;;;;;;10.95;5.97;;;;;;;;;;5102752;28;20539;-67
2023/09/09 07:25:44;;;;;;;11.27;6.18;;;;;;;;;;5105839;28;20046;-68
2023/09/09 07:28:11;;;;;;;9.80;5.85;;;;;;;;;;5103288;27;20051;-68
2023/09/09 07:30:37;;;;;;;8.45;6.35;;;;;;;;;;5105096;28;20035;-68
2023/09/09 07:33:03;;;;;;;9.85;6.00;;;;;;;;;;5102606;28;20039;-68
2023/09/09 07:35:31;;;;;;;6.53;5.78;;;;;;;;;;5105166;28;20036;-68
2023/09/09 07:37:57;;;;;;;10.48;6.55;;;;;;;;;;5103074;28;20161;-68
2023/09/09 07:40:23;;;;;;;10.57;6.47;;;;;;;;;;5104294;28;20360;-68
2023/09/09 07:42:50;;;;;;;10.32;5.95;;;;;;;;;;5101701;28;20028;-68
2023/09/09 07:45:19;;;;;;;9.02;6.57;;;;;;;;;;5104000;28;20077;-68
2023/09/09 07:47:45;;;;;;;6.95;5.60;;;;;;;;;;5101829;28;20036;-68
2023/09/09 07:50:11;;;;;;;7.40;6.18;;;;;;;;;;5103784;28;20468;-68
2023/09/09 07:52:38;;;;;;;10.50;5.85;;;;;;;;;;5097043;27;20027;-68
2023/09/09 07:55:04;;;;;;;8.68;6.18;;;;;;;;;;5103019;28;20043;-67
2023/09/09 07:57:30;;;;;;;8.27;5.30;;;;;;;;;;5103752;28;20028;-68
2023/09/09 07:59:56;;;;;;;7.63;6.07;;;;;;;;;;5102323;28;20035;-68
2023/09/09 08:02:23;;;;;;;7.47;5.78;;;;;;;;;;5085293;28;20122;-67
2023/09/09 08:04:49;;;;;;;7.20;6.07;;;;;;;;;;5087966;28;20027;-67
2023/09/09 08:07:15;;;;;;;11.88;6.55;;;;;;;;;;5077053;28;20028;-68
2023/09/09 08:09:41;;;;;;;9.20;5.95;;;;;;;;;;5096608;27;20081;-68
2023/09/09 08:12:08;;;;;;;9.90;6.07;;;;;;;;;;5105532;27;20031;-68
2023/09/09 08:14:34;;;;;;;10.52;6.63;;;;;;;;;;5084010;28;20036;-68
2023/09/09 08:17:00;;;;;;;11.90;6.28;;;;;;;;;;5104195;28;20521;-68
2023/09/09 08:19:26;;;;;;;10.93;6.68;;;;;;;;;;5095685;28;20106;-68
2023/09/09 08:21:52;;;;;;;16.65;6.90;;;;;;;;;;5104220;27;20527;-68
2023/09/09 08:24:18;;;;;;;15.05;6.70;;;;;;;;;;5083523;27;20066;-68
2023/09/09 08:26:45;;;;;;;12.07;6.72;;;;;;;;;;5103311;28;20441;-69
2023/09/09 08:29:11;;;;;;;10.40;5.95;;;;;;;;;;5088360;28;20037;-69
2023/09/09 08:31:37;;;;;;;7.82;6.65;;;;;;;;;;5104746;27;20660;-68
2023/09/09 08:34:03;;;;;;;8.48;5.55;;;;;;;;;;5101660;28;20595;-69
2023/09/09 08:36:29;;;;;;;11.02;6.03;;;;;;;;;;5086047;28;20027;-68
2023/09/09 08:38:57;;;;;;;12.27;6.40;;;;;;;;;;5101513;28;20041;-68
2023/09/09 08:41:41;;;;;;;8.88;5.57;;;;;;;;;;5107641;28;20034;-69
2023/09/09 08:44:07;;;;;;;8.13;5.88;;;;;;;;;;5104795;28;20491;-68
2023/09/09 08:46:34;;;;;;;9.70;5.72;;;;;;;;;;5102658;28;20039;-67
2023/09/09 08:49:04;;;;;;;7.60;5.95;;;;;;;;;;5096777;28;20495;-68
2023/09/09 08:51:34;;;;;;;8.48;6.18;;;;;;;;;;5104830;28;20077;-68
2023/09/09 08:54:02;;;;;;;12.68;6.55;;;;;;;;;;5091440;28;20024;-68
2023/09/09 08:56:28;;;;;;;9.93;5.97;;;;;;;;;;5096870;28;20030;-68
2023/09/09 08:58:55;;;;;;;9.70;5.20;;;;;;;;;;5091424;28;20374;-69
2023/09/09 09:01:22;;;;;;;8.57;5.70;;;;;;;;;;5098356;28;20019;-69
2023/09/09 09:03:50;;;;;;;8.07;5.07;;;;;;;;;;5101511;28;20043;-68
2023/09/09 09:06:16;;;;;;;13.40;5.07;;;;;;;;;;5082994;28;20491;-68
2023/09/09 09:08:42;;;;;;;8.48;4.63;;;;;;;;;;5098475;28;20038;-68
2023/09/09 09:11:10;;;;;;;7.70;6.28;;;;;;;;;;5098529;28;20059;-67
2023/09/09 09:13:36;;;;;;;8.15;4.68;;;;;;;;;;5077656;28;20440;-67
2023/09/09 09:16:03;;;;;;;8.57;5.03;;;;;;;;;;5098679;28;20048;-68
2023/09/09 09:18:29;;;;;;;7.25;4.88;;;;;;;;;;5099675;28;20027;-69
2023/09/09 09:21:05;;;;;;;7.35;4.65;;;;;;;;;;5101301;28;20028;-68
2023/09/09 09:23:31;;;;;;;6.90;4.60;;;;;;;;;;5086880;28;20020;-69
2023/09/09 09:25:57;;;;;;;7.03;4.55;;;;;;;;;;5081928;28;20035;-68
2023/09/09 09:28:28;;;;;;;6.90;4.25;;;;;;;;;;5090496;28;20028;-68
2023/09/09 09:30:54;;;;;;;8.63;4.57;;;;;;;;;;5082074;28;20042;-68
2023/09/09 09:33:24;;;;;;;8.40;4.43;;;;;;;;;;5097661;28;20031;-64
2023/09/09 09:35:51;;;;;;;6.38;4.55;;;;;;;;;;5099715;28;20114;-65
2023/09/09 09:38:17;;;;;;;9.23;4.68;;;;;;;;;;5099753;28;20134;-65
2023/09/09 09:40:44;;;;;;;8.40;4.50;;;;;;;;;;5097353;28;20055;-65
2023/09/09 09:43:20;;;;;;;6.65;4.13;;;;;;;;;;5095764;28;20032;-70
2023/09/09 09:45:47;;;;;;;6.85;4.13;;;;;;;;;;5101891;28;20034;-65
2023/09/09 09:48:25;;;;;;;8.50;4.20;;;;;;;;;;5101705;28;20035;-70
2023/09/09 09:50:54;;;;;;;7.88;4.32;;;;;;;;;;5066300;28;20074;-69
2023/09/09 09:53:20;;;;;;;6.60;4.65;;;;;;;;;;5095241;28;20352;-70
2023/09/09 09:55:46;;;;;;;9.10;4.78;;;;;;;;;;5095121;28;20429;-64
2023/09/09 09:58:14;;;;;;;6.15;4.80;;;;;;;;;;5099385;28;20433;-66
2023/09/09 10:00:40;;;;;;;7.97;4.32;;;;;;;;;;5098110;28;20364;-65
2023/09/09 10:03:07;;;;;;;8.05;5.00;;;;;;;;;;5099835;28;20035;-66
2023/09/09 10:05:34;;;;;;;6.15;4.45;;;;;;;;;;5097922;28;20035;-66
2023/09/09 10:08:20;;;;;;;9.60;4.65;;;;;;;;;;5082614;28;20043;-70
2023/09/09 10:10:54;;;;;;;7.55;4.20;;;;;;;;;;5102478;28;20040;-69
2023/09/09 10:13:29;;;;;;;7.15;5.18;;;;;;;;;;5098491;28;20068;-70
2023/09/09 10:15:56;;;;;;;6.15;4.40;;;;;;;;;;5095675;28;20502;-70
2023/09/09 10:18:23;;;;;;;5.53;4.45;;;;;;;;;;5092879;28;20023;-69
2023/09/09 10:20:50;;;;;;;6.78;4.00;;;;;;;;;;5096776;28;20019;-69
2023/09/09 10:23:17;;;;;;;8.15;4.80;;;;;;;;;;5082105;28;20066;-70
2023/09/09 10:25:43;;;;;;;7.22;4.68;;;;;;;;;;5100158;28;20105;-70
2023/09/09 10:28:10;;;;;;;6.93;4.53;;;;;;;;;;5101029;28;20391;-70
2023/09/09 10:30:37;;;;;;;7.85;4.22;;;;;;;;;;5093202;28;20020;-70
2023/09/09 10:33:07;;;;;;;7.30;4.25;;;;;;;;;;5097930;28;20437;-70
2023/09/09 10:35:36;;;;;;;7.85;4.97;;;;;;;;;;5083439;28;20508;-70
2023/09/09 10:38:03;;;;;;;6.28;4.13;;;;;;;;;;5100831;28;20066;-70
2023/09/09 10:40:30;;;;;;;7.95;4.90;;;;;;;;;;5099557;28;20016;-69
2023/09/09 10:42:56;;;;;;;6.00;3.88;;;;;;;;;;5096834;28;20034;-71
2023/09/09 10:45:23;;;;;;;7.38;4.82;;;;;;;;;;5100688;28;20031;-70
2023/09/09 10:47:56;;;;;;;6.80;4.45;;;;;;;;;;5096751;28;20043;-70
2023/09/09 10:50:22;;;;;;;6.22;4.18;;;;;;;;;;5100509;28;20023;-70
2023/09/09 10:52:52;;;;;;;5.57;3.92;;;;;;;;;;5103315;28;20042;-70
2023/09/09 10:55:27;;;;;;;7.63;3.83;;;;;;;;;;5098728;28;20034;-69
2023/09/09 10:57:57;;;;;;;7.68;4.45;;;;;;;;;;5083177;28;20044;-70
2023/09/09 11:00:40;;;;;;;8.00;3.95;;;;;;;;;;5095134;28;20148;-70
2023/09/09 11:03:10;;;;;;;5.47;4.18;;;;;;;;;;5101708;28;20054;-69
2023/09/09 11:06:03;;;;;;;6.60;4.10;;;;;;;;;;5082296;28;20020;-69
2023/09/09 11:08:30;;;;;;;8.30;4.53;;;;;;;;;;5067816;28;20728;-69
2023/09/09 11:11:10;;;;;;;5.70;4.28;;;;;;;;;;5080176;28;20034;-72
2023/09/09 11:13:55;;;;;;;6.93;4.65;;;;;;;;;;5095954;28;20023;-72
2023/09/09 11:16:21;;;;;;;;;;;;;;;;;;5032123;28;1456878;-71
2023/09/09 11:18:47;;;;;;;5.05;3.72;;;;;;;;;;5104745;28;19929;-71
2023/09/09 11:21:13;;;;;;;7.32;4.03;;;;;;;;;;5101900;28;20105;-72
2023/09/09 11:23:40;;;;;;;7.60;4.28;;;;;;;;;;5083272;28;20096;-71
2023/09/09 11:26:06;;;;;;;8.85;3.53;;;;;;;;;;5106097;28;20536;-71
2023/09/09 11:28:32;;;;;;;9.05;4.25;;;;;;;;;;5103876;28;20027;-71
2023/09/09 11:31:00;;;;;;;6.70;4.00;;;;;;;;;;5103715;28;20035;-71
2023/09/09 11:33:26;;;;;;;5.38;3.97;;;;;;;;;;5102599;28;20620;-70
2023/09/09 11:35:53;;;;;;;8.27;4.07;;;;;;;;;;5103527;27;20036;-71
2023/09/09 11:38:19;;;;;;;8.43;4.15;;;;;;;;;;5106030;28;20046;-71
2023/09/09 11:40:46;;;;;;;11.38;4.88;;;;;;;;;;5101424;28;20028;-71
2023/09/09 11:43:14;;;;;;;5.25;3.80;;;;;;;;;;5102992;28;20019;-71
2023/09/09 11:45:41;;;;;;;5.40;3.75;;;;;;;;;;5098630;28;20020;-70
2023/09/09 11:48:13;;;;;;;8.00;4.45;;;;;;;;;;5100742;28;20498;-70
2023/09/09 11:50:42;;;;;;;8.05;3.97;;;;;;;;;;5106505;28;20114;-71
2023/09/09 11:53:12;;;;;;;4.25;3.80;;;;;;;;;;5106580;28;20391;-71
2023/09/09 11:55:38;;;;;;;5.88;3.80;;;;;;;;;;5106126;28;20476;-72
2023/09/09 11:58:05;;;;;;;8.15;4.15;;;;;;;;;;5102743;28;20096;-72
2023/09/09 12:00:31;;;;;;;6.82;4.47;;;;;;;;;;5100866;28;20554;-72
2023/09/09 12:02:57;;;;;;;7.28;4.65;;;;;;;;;;5084993;28;20418;-71
2023/09/09 12:05:30;;;;;;;6.03;3.67;;;;;;;;;;5084174;28;20028;-72
2023/09/09 12:07:58;;;;;;;6.70;3.90;;;;;;;;;;5083285;28;20030;-71
2023/09/09 12:10:26;;;;;;;6.15;3.65;;;;;;;;;;5082301;28;20049;-71
2023/09/09 12:12:52;;;;;;;6.35;3.45;;;;;;;;;;5077057;28;20134;-70
2023/09/09 12:15:18;;;;;;;5.43;3.55;;;;;;;;;;5096251;28;20054;-70
2023/09/09 12:17:44;;;;;;;4.60;3.53;;;;;;;;;;5101235;28;20355;-70
2023/09/09 12:20:10;;;;;;;6.05;3.90;;;;;;;;;;5102677;28;20028;-70
2023/09/09 12:22:41;;;;;;;20.55;4.80;;;;;;;;;;5098613;28;20669;-70
2023/09/09 12:25:27;;;;;;;8.80;4.57;;;;;;;;;;5090380;28;20411;-72
2023/09/09 12:27:53;;;;;;;5.75;3.85;;;;;;;;;;5106990;27;20952;-71
2023/09/09 12:30:40;;;;;;;6.05;3.42;;;;;;;;;;5108412;28;20101;-72
2023/09/09 12:33:06;;;;;;;5.10;3.67;;;;;;;;;;5106474;28;20039;-72
2023/09/09 12:35:33;;;;;;;4.90;3.42;;;;;;;;;;5098444;28;20101;-72
2023/09/09 12:37:59;;;;;;;4.32;3.40;;;;;;;;;;5106213;28;20089;-72
2023/09/09 12:40:26;;;;;;;5.55;3.50;;;;;;;;;;5101451;28;20020;-72
2023/09/09 12:42:55;;;;;;;4.93;3.30;;;;;;;;;;5102164;28;20115;-73
2023/09/09 12:45:24;;;;;;;5.18;3.33;;;;;;;;;;5107185;28;20064;-72
2023/09/09 12:47:51;;;;;;;4.55;3.30;;;;;;;;;;5105118;28;20031;-73
2023/09/09 12:50:17;;;;;;;4.05;2.92;;;;;;;;;;5087766;28;20024;-73
2023/09/09 12:52:46;;;;;;;7.85;3.83;;;;;;;;;;5079873;28;20051;-69
2023/09/09 12:55:14;;;;;;;4.03;2.85;;;;;;;;;;5101286;28;20133;-70
2023/09/09 12:57:40;;;;;;;3.88;3.10;;;;;;;;;;5103678;28;20104;-72
2023/09/09 13:00:09;;;;;;;5.15;3.40;;;;;;;;;;5078379;28;20047;-71
2023/09/09 13:02:35;;;;;;;4.97;3.22;;;;;;;;;;5102751;28;20382;-70
2023/09/09 13:05:01;;;;;;;5.55;3.10;;;;;;;;;;5097076;28;20454;-71
2023/09/09 13:07:27;;;;;;;5.78;3.40;;;;;;;;;;5088971;28;20041;-73
2023/09/09 13:09:54;;;;;;;6.25;3.25;;;;;;;;;;5088595;28;20457;-71
2023/09/09 13:12:20;;;;;;;5.07;3.20;;;;;;;;;;5099413;28;20031;-72
2023/09/09 13:14:46;;;;;;;4.10;3.15;;;;;;;;;;5094680;27;20038;-70
2023/09/09 13:17:12;;;;;;;3.88;3.00;;;;;;;;;;5096917;28;20773;-70
2023/09/09 13:19:38;;;;;;;3.30;2.80;;;;;;;;;;5100986;28;20034;-71
2023/09/09 13:22:04;;;;;;;4.10;3.15;;;;;;;;;;5100758;28;20047;-70
2023/09/09 13:24:30;;;;;;;3.90;2.97;;;;;;;;;;5100226;28;20027;-70
2023/09/09 13:26:56;;;;;;;3.88;3.13;;;;;;;;;;5086915;28;20028;-69
2023/09/09 13:29:22;;;;;;;4.05;3.30;;;;;;;;;;5104702;28;20059;-70
2023/09/09 13:31:49;;;;;;;5.65;3.10;;;;;;;;;;5101359;28;20035;-71
2023/09/09 13:34:15;;;;;;;4.75;3.15;;;;;;;;;;5101617;28;20038;-70
2023/09/09 13:36:41;;;;;;;4.43;2.95;;;;;;;;;;5100893;27;20065;-70
2023/09/09 13:39:07;;;;;;;4.88;3.40;;;;;;;;;;5090555;28;20027;-69
2023/09/09 13:41:33;;;;;;;4.15;3.10;;;;;;;;;;5100005;28;20082;-69
2023/09/09 13:43:59;;;;;;;5.32;3.35;;;;;;;;;;5079172;28;20076;-70
2023/09/09 13:46:25;;;;;;;5.93;3.47;;;;;;;;;;5101291;28;20034;-70
2023/09/09 13:48:52;;;;;;;2.80;2.47;;;;;;;;;;5093986;28;20040;-70
2023/09/09 13:51:18;;;;;;;4.63;3.47;;;;;;;;;;5098272;28;20034;-71
2023/09/09 13:53:44;;;;;;;3.88;2.80;;;;;;;;;;5098584;28;20384;-70
2023/09/09 13:56:10;;;;;;;5.72;3.97;;;;;;;;;;5097774;28;20055;-71
2023/09/09 13:58:36;;;;;;;4.45;2.90;;;;;;;;;;5097095;28;20023;-71
2023/09/09 14:01:03;;;;;;;5.32;3.42;;;;;;;;;;5096982;28;20028;-70
2023/09/09 14:03:29;;;;;;;3.88;3.10;;;;;;;;;;5082635;28;20058;-70
2023/09/09 14:05:58;;;;;;;4.78;3.63;;;;;;;;;;5083118;28;20028;-70
2023/09/09 14:08:24;;;;;;;6.40;3.38;;;;;;;;;;5088244;28;20567;-70
2023/09/09 14:10:50;;;;;;;4.30;2.83;;;;;;;;;;5088789;28;20027;-70
2023/09/09 14:13:17;;;;;;;4.32;3.00;;;;;;;;;;5098788;28;20028;-70
2023/09/09 14:15:43;;;;;;;4.13;3.35;;;;;;;;;;5102179;28;20039;-70
2023/09/09 14:18:09;;;;;;;4.75;2.97;;;;;;;;;;5098467;28;20036;-69
2023/09/09 14:20:35;;;;;;;4.18;3.00;;;;;;;;;;5097647;28;20028;-69
2023/09/09 14:23:01;;;;;;;4.63;2.78;;;;;;;;;;5093186;28;20027;-71
2023/09/09 14:25:32;;;;;;;4.50;3.10;;;;;;;;;;5095596;28;20078;-71
2023/09/09 14:28:00;;;;;;;5.13;2.95;;;;;;;;;;5080493;28;20020;-71
2023/09/09 14:30:26;;;;;;;5.10;2.78;;;;;;;;;;5076682;28;20027;-69
2023/09/09 14:32:53;;;;;;;4.15;2.88;;;;;;;;;;5101066;28;20553;-70
2023/09/09 14:35:19;;;;;;;11.27;3.58;;;;;;;;;;5097722;28;20049;-70
2023/09/09 14:37:45;;;;;;;7.05;3.13;;;;;;;;;;5097740;28;20039;-70